Time;durP1;ratioP1;P1;durP2;ratioP2;P2;SDS_P1;SDS_P2;PMS_P1;PMS_P2;Temp;Humidity;BMP_temperature;BMP_pressure;BME280_temperature;BME280_humidity;BME280_pressure;Samples;Min_cycle;Max_cycle;Signal;HPM_P1;HPM_P2
2023/09/23 00:01:49;;;;;;;1.48;0.28;;;10.60;99.90;;;;;;5012307;28;20412;-55
2023/09/23 00:04:16;;;;;;;2.40;0.40;;;10.70;99.90;;;;;;5013242;28;20038;-57
2023/09/23 00:06:43;;;;;;;0.47;0.30;;;10.60;99.90;;;;;;5013375;28;20126;-58
2023/09/23 00:09:11;;;;;;;0.40;0.30;;;10.60;99.90;;;;;;5008321;28;20068;-57
2023/09/23 00:11:40;;;;;;;0.30;0.30;;;10.60;99.90;;;;;;5012537;28;20048;-58
2023/09/23 00:14:07;;;;;;;1.17;0.43;;;10.60;99.90;;;;;;5013402;28;20053;-58
2023/09/23 00:16:34;;;;;;;0.63;0.22;;;10.60;99.90;;;;;;5012889;28;20050;-58
2023/09/23 00:19:02;;;;;;;;;;;10.60;99.90;;;;;;5011820;28;20042;-57
2023/09/23 00:21:28;;;;;;;0.82;0.40;;;10.60;99.90;;;;;;5006996;28;19988;-58
2023/09/23 00:23:57;;;;;;;0.30;0.30;;;10.60;99.90;;;;;;5013339;28;20045;-55
2023/09/23 00:26:26;;;;;;;0.30;0.28;;;10.60;99.90;;;;;;5012663;28;20030;-58
2023/09/23 00:28:53;;;;;;;0.63;0.30;;;10.60;99.90;;;;;;5001698;28;20049;-56
2023/09/23 00:31:20;;;;;;;1.52;0.60;;;10.60;99.90;;;;;;5010525;28;20061;-58
2023/09/23 00:33:48;;;;;;;0.80;0.40;;;10.60;99.90;;;;;;5022774;28;20107;-56
2023/09/23 00:36:15;;;;;;;0.95;0.38;;;10.60;99.90;;;;;;5011399;28;20080;-56
2023/09/23 00:38:42;;;;;;;1.85;0.40;;;10.60;99.90;;;;;;5013525;28;20037;-58
2023/09/23 00:41:09;;;;;;;0.40;0.40;;;10.70;99.90;;;;;;5011460;28;20050;-58
2023/09/23 00:43:36;;;;;;;1.52;0.38;;;10.70;99.90;;;;;;5004808;28;20057;-57
2023/09/23 00:46:04;;;;;;;2.10;0.60;;;10.60;99.90;;;;;;5011674;28;20049;-57
2023/09/23 00:48:39;;;;;;;0.45;0.40;;;10.70;99.90;;;;;;5014215;28;20044;-59
2023/09/23 00:51:09;;;;;;;0.45;0.45;;;10.70;99.90;;;;;;5004428;28;20065;-55
2023/09/23 00:53:39;;;;;;;0.43;0.43;;;10.70;99.90;;;;;;5011719;28;20041;-58
2023/09/23 00:56:11;;;;;;;0.65;0.50;;;10.70;99.90;;;;;;5012169;28;20054;-58
2023/09/23 00:58:42;;;;;;;0.63;0.40;;;10.70;99.90;;;;;;5013159;28;20128;-58
2023/09/23 01:01:10;;;;;;;0.45;0.40;;;10.70;99.90;;;;;;5010028;28;20057;-58
2023/09/23 01:03:38;;;;;;;0.40;0.40;;;10.70;99.90;;;;;;5012598;28;20497;-56
2023/09/23 01:06:14;;;;;;;0.22;0.22;;;10.70;99.90;;;;;;5010456;28;20074;-59
2023/09/23 01:08:45;;;;;;;1.25;0.45;;;10.70;99.90;;;;;;5005962;28;20128;-55
2023/09/23 01:11:14;;;;;;;1.17;0.40;;;10.70;99.90;;;;;;5013843;28;20034;-58
2023/09/23 01:13:43;;;;;;;1.15;0.50;;;10.70;99.90;;;;;;5011452;28;20077;-58
2023/09/23 01:16:14;;;;;;;2.28;0.50;;;10.70;99.90;;;;;;5009981;28;20046;-56
2023/09/23 01:18:45;;;;;;;1.38;0.73;;;10.70;99.90;;;;;;5011760;28;20046;-58
2023/09/23 01:21:12;;;;;;;0.95;0.50;;;10.70;99.90;;;;;;5012689;28;20045;-58
2023/09/23 01:23:43;;;;;;;1.85;0.65;;;10.70;99.90;;;;;;5010757;28;20088;-55
2023/09/23 01:26:11;;;;;;;2.90;0.30;;;10.70;99.90;;;;;;5010658;28;20599;-58
2023/09/23 01:28:38;;;;;;;0.47;0.47;;;10.70;99.90;;;;;;5012015;28;20040;-58
2023/09/23 01:36:02;;;;;;;1.30;0.70;;;10.70;99.90;;;;;;5023310;28;20041;-61
2023/09/23 01:38:32;;;;;;;0.80;0.68;;;10.80;99.90;;;;;;4928356;28;20039;-62
2023/09/23 01:41:04;;;;;;;1.10;0.80;;;10.80;99.90;;;;;;4939064;28;20058;-61
2023/09/23 01:43:31;;;;;;;1.35;0.80;;;10.80;99.90;;;;;;4943279;28;20035;-60
2023/09/23 01:46:03;;;;;;;1.17;0.55;;;10.80;99.90;;;;;;4946017;28;20061;-61
2023/09/23 01:48:30;;;;;;;1.42;1.00;;;10.80;99.90;;;;;;4966378;28;20059;-60
2023/09/23 01:51:00;;;;;;;1.52;0.80;;;10.70;99.90;;;;;;4970893;28;20035;-60
2023/09/23 01:53:28;;;;;;;1.42;0.80;;;10.70;99.90;;;;;;4966763;28;20070;-61
2023/09/23 01:55:55;;;;;;;1.67;1.20;;;10.70;99.90;;;;;;4983279;28;20105;-60
2023/09/23 01:58:22;;;;;;;4.72;1.30;;;10.70;99.90;;;;;;4978005;28;20133;-61
2023/09/23 02:00:51;;;;;;;1.27;0.90;;;10.70;99.90;;;;;;4965090;28;20431;-61
2023/09/23 02:03:18;;;;;;;1.52;0.98;;;10.70;99.90;;;;;;4976049;28;20042;-61
2023/09/23 02:05:46;;;;;;;1.98;1.02;;;10.70;99.90;;;;;;4984103;28;20145;-61
2023/09/23 02:08:14;;;;;;;1.23;0.90;;;10.70;99.90;;;;;;4992081;28;20109;-61
2023/09/23 02:10:45;;;;;;;2.13;1.52;;;10.70;99.90;;;;;;4989664;28;20519;-60
2023/09/23 02:13:13;;;;;;;1.10;1.00;;;10.70;99.90;;;;;;4976113;28;20050;-60
2023/09/23 02:15:40;;;;;;;2.05;1.50;;;10.70;99.90;;;;;;4960488;28;20047;-59
2023/09/23 02:18:06;;;;;;;1.30;1.20;;;10.70;99.90;;;;;;4992021;28;20505;-60
2023/09/23 02:20:34;;;;;;;1.48;1.25;;;10.70;99.90;;;;;;4995265;28;20406;-60
2023/09/23 02:23:02;;;;;;;2.15;1.10;;;10.70;99.90;;;;;;4969578;28;20047;-60
2023/09/23 02:25:30;;;;;;;3.08;0.82;;;10.70;99.90;;;;;;4965103;28;20041;-61
2023/09/23 02:27:57;;;;;;;4.10;1.00;;;10.70;99.90;;;;;;4964061;28;20145;-59
2023/09/23 02:30:24;;;;;;;1.13;1.00;;;10.70;99.90;;;;;;4967856;28;20088;-61
2023/09/23 02:32:51;;;;;;;0.82;0.82;;;10.80;99.90;;;;;;4986675;28;20038;-61
2023/09/23 02:35:18;;;;;;;0.90;0.80;;;10.80;99.90;;;;;;4962744;28;20492;-60
2023/09/23 02:37:48;;;;;;;1.30;1.00;;;10.70;99.90;;;;;;4983279;28;20599;-61
2023/09/23 02:40:15;;;;;;;3.25;0.68;;;10.70;99.90;;;;;;4990364;28;20038;-61
2023/09/23 02:42:46;;;;;;;2.35;0.60;;;10.70;99.90;;;;;;4972250;28;20090;-60
2023/09/23 02:45:16;;;;;;;0.80;0.70;;;10.70;99.90;;;;;;4984917;28;20445;-61
2023/09/23 02:47:44;;;;;;;0.93;0.85;;;10.70;99.90;;;;;;4986047;28;20133;-61
2023/09/23 02:50:13;;;;;;;1.70;0.68;;;10.70;99.90;;;;;;4969038;28;20660;-61
2023/09/23 02:52:44;;;;;;;3.10;0.63;;;10.70;99.90;;;;;;4964782;28;20066;-61
2023/09/23 02:55:14;;;;;;;0.77;0.70;;;10.70;99.90;;;;;;4969156;28;20086;-61
2023/09/23 02:57:46;;;;;;;0.93;0.70;;;10.70;99.90;;;;;;4986017;28;20541;-60
2023/09/23 03:00:17;;;;;;;1.10;0.77;;;10.70;99.90;;;;;;4974302;28;20105;-61
2023/09/23 03:02:48;;;;;;;0.90;0.70;;;10.70;99.90;;;;;;4980717;28;20042;-60
2023/09/23 03:05:21;;;;;;;1.40;0.80;;;10.70;99.90;;;;;;4993376;28;20042;-62
2023/09/23 03:07:48;;;;;;;1.85;1.10;;;10.70;99.90;;;;;;4963252;28;20046;-61
2023/09/23 03:10:19;;;;;;;1.50;0.52;;;10.70;99.90;;;;;;4972535;28;20465;-62
2023/09/23 03:13:01;;;;;;;4.55;0.73;;;10.70;99.90;;;;;;4982997;28;20045;-61
2023/09/23 03:15:34;;;;;;;2.03;0.70;;;10.70;99.90;;;;;;4993814;28;20053;-60
2023/09/23 03:18:02;;;;;;;0.73;0.60;;;10.70;99.90;;;;;;4969364;28;20121;-61
2023/09/23 03:20:30;;;;;;;1.33;0.85;;;10.70;99.90;;;;;;4980850;28;20045;-61
2023/09/23 03:22:57;;;;;;;3.47;0.85;;;10.70;99.90;;;;;;4993812;28;20093;-61
2023/09/23 03:25:25;;;;;;;0.73;0.60;;;10.70;99.90;;;;;;4973523;28;20049;-61
2023/09/23 03:27:52;;;;;;;1.40;0.70;;;10.70;99.90;;;;;;4970344;28;20070;-60
2023/09/23 03:30:20;;;;;;;0.88;0.75;;;10.70;99.90;;;;;;4979736;28;20098;-60
2023/09/23 03:32:47;;;;;;;;;;;10.70;99.90;;;;;;4967480;28;20067;-60
2023/09/23 03:35:23;;;;;;;;;;;10.70;99.90;;;;;;4964734;28;19921;-61
2023/09/23 03:37:51;;;;;;;2.97;0.80;;;10.70;99.90;;;;;;4975023;28;20000;-61
2023/09/23 03:40:24;;;;;;;;;;;10.70;99.90;;;;;;4976485;28;20425;-61
2023/09/23 03:42:51;;;;;;;0.75;0.57;;;10.60;99.90;;;;;;4967734;28;20382;-62
2023/09/23 03:45:19;;;;;;;0.90;0.75;;;10.60;99.90;;;;;;4958753;28;20043;-60
2023/09/23 03:47:47;;;;;;;1.55;0.75;;;10.60;99.90;;;;;;4975853;28;20038;-62
2023/09/23 03:50:14;;;;;;;;;;;10.60;99.90;;;;;;4968246;28;20046;-62
2023/09/23 03:52:42;;;;;;;2.00;0.90;;;10.60;99.90;;;;;;4993770;28;19922;-61
2023/09/23 03:55:11;;;;;;;2.78;0.90;;;10.60;99.90;;;;;;4980139;28;20039;-61
2023/09/23 03:57:38;;;;;;;2.42;0.80;;;10.60;99.90;;;;;;4971450;28;20046;-62
2023/09/23 04:00:16;;;;;;;2.08;0.73;;;10.60;99.90;;;;;;4972727;28;20043;-62
2023/09/23 04:02:50;;;;;;;4.85;0.90;;;10.60;99.90;;;;;;4972663;28;20069;-62
2023/09/23 04:05:16;;;;;;;0.98;0.70;;;10.60;99.90;;;;;;4971543;28;20090;-61
2023/09/23 04:07:49;;;;;;;2.05;0.80;;;10.60;99.90;;;;;;4967162;28;20057;-61
2023/09/23 04:10:24;;;;;;;0.60;0.57;;;10.60;99.90;;;;;;4993157;28;20120;-61
2023/09/23 04:12:52;;;;;;;1.60;0.90;;;10.60;99.90;;;;;;4976938;28;20037;-60
2023/09/23 04:15:21;;;;;;;0.77;0.70;;;10.70;99.90;;;;;;4975643;28;20388;-62
2023/09/23 04:17:48;;;;;;;1.23;0.88;;;10.60;99.90;;;;;;4982677;28;20483;-61
2023/09/23 04:20:15;;;;;;;1.00;0.68;;;10.60;99.90;;;;;;4979391;28;20101;-61
2023/09/23 04:22:42;;;;;;;3.60;0.73;;;10.60;99.90;;;;;;4992435;28;20070;-61
2023/09/23 04:25:10;;;;;;;1.88;0.90;;;10.60;99.90;;;;;;4991462;28;20047;-61
2023/09/23 04:27:37;;;;;;;3.55;0.80;;;10.70;99.90;;;;;;4980085;28;20495;-61
2023/09/23 04:30:11;;;;;;;1.33;0.82;;;10.60;99.90;;;;;;4977051;28;20046;-61
2023/09/23 04:32:39;;;;;;;2.25;0.70;;;10.60;99.90;;;;;;4984847;28;20038;-61
2023/09/23 04:35:07;;;;;;;2.10;0.80;;;10.60;99.90;;;;;;4989715;28;20398;-61
2023/09/23 04:37:37;;;;;;;2.65;1.00;;;10.60;99.90;;;;;;4992219;28;20508;-61
2023/09/23 04:40:12;;;;;;;0.80;0.63;;;10.60;99.90;;;;;;4985300;28;20042;-62
2023/09/23 04:42:40;;;;;;;1.65;0.70;;;10.60;99.90;;;;;;4977501;28;20452;-61
2023/09/23 04:45:09;;;;;;;0.98;0.80;;;10.60;99.90;;;;;;4992489;28;20398;-61
2023/09/23 04:47:36;;;;;;;2.97;0.60;;;10.60;99.90;;;;;;4963493;28;20035;-60
2023/09/23 04:50:08;;;;;;;;;;;10.60;99.90;;;;;;4981716;28;20042;-61
2023/09/23 04:52:35;;;;;;;1.85;1.08;;;10.60;99.90;;;;;;4980458;28;20129;-60
2023/09/23 04:55:02;;;;;;;1.42;0.77;;;10.60;99.90;;;;;;4988102;28;20554;-62
2023/09/23 04:57:29;;;;;;;1.02;0.52;;;10.60;99.90;;;;;;4968783;28;20059;-61
2023/09/23 04:59:57;;;;;;;0.68;0.60;;;10.50;99.90;;;;;;4978337;28;20050;-60
2023/09/23 05:02:24;;;;;;;1.05;0.70;;;10.50;99.90;;;;;;4974393;28;20126;-61
2023/09/23 05:04:53;;;;;;;0.52;0.50;;;10.50;99.90;;;;;;4992246;28;20046;-60
2023/09/23 05:07:21;;;;;;;0.93;0.60;;;10.50;99.90;;;;;;4966169;28;20051;-61
2023/09/23 05:09:49;;;;;;;1.15;0.80;;;10.50;99.90;;;;;;4978184;28;20483;-62
2023/09/23 05:12:16;;;;;;;1.08;0.52;;;10.50;99.90;;;;;;4984130;28;20126;-62
2023/09/23 05:14:43;;;;;;;0.70;0.70;;;10.50;99.90;;;;;;4988003;28;20046;-61
2023/09/23 05:17:15;;;;;;;2.45;0.80;;;10.50;99.90;;;;;;4977123;28;20046;-61
2023/09/23 05:19:42;;;;;;;1.02;0.57;;;10.50;99.90;;;;;;4958707;28;20094;-62
2023/09/23 05:22:10;;;;;;;;;;;10.60;99.90;;;;;;4960729;28;20047;-61
2023/09/23 05:24:38;;;;;;;1.05;0.68;;;10.60;99.90;;;;;;4972023;28;19922;-61
2023/09/23 05:27:05;;;;;;;7.13;1.02;;;10.60;99.90;;;;;;4984237;28;20097;-60
2023/09/23 05:29:32;;;;;;;3.83;2.25;;;10.60;99.90;;;;;;4968571;28;20058;-62
2023/09/23 05:31:59;;;;;;;2.20;0.82;;;10.60;99.90;;;;;;4973450;28;20373;-60
2023/09/23 05:34:27;;;;;;;1.25;1.00;;;10.60;99.90;;;;;;4988938;28;20046;-62
2023/09/23 05:36:54;;;;;;;1.67;1.05;;;10.60;99.90;;;;;;4979666;28;20050;-61
2023/09/23 05:39:20;;;;;;;2.25;0.75;;;10.60;99.90;;;;;;4991562;28;20060;-62
2023/09/23 05:41:48;;;;;;;2.03;0.90;;;10.60;99.90;;;;;;4979607;28;20130;-62
2023/09/23 05:44:16;;;;;;;1.73;0.90;;;10.60;99.90;;;;;;4991594;28;20098;-59
2023/09/23 05:46:43;;;;;;;1.88;1.00;;;10.50;99.90;;;;;;4985756;28;20050;-61
2023/09/23 05:49:12;;;;;;;1.10;1.00;;;10.50;99.90;;;;;;4972330;28;20444;-58
2023/09/23 05:51:39;;;;;;;2.72;1.10;;;10.50;99.90;;;;;;4973716;28;20042;-59
2023/09/23 05:54:08;;;;;;;3.03;1.23;;;10.50;99.90;;;;;;4991663;28;20068;-62
2023/09/23 05:56:35;;;;;;;1.38;0.98;;;10.60;99.90;;;;;;4980202;28;20069;-60
2023/09/23 05:59:02;;;;;;;1.30;1.17;;;10.60;99.90;;;;;;4964312;28;20047;-59
2023/09/23 06:01:29;;;;;;;1.25;1.13;;;10.60;99.90;;;;;;4982353;28;20054;-59
2023/09/23 06:03:58;;;;;;;2.95;1.45;;;10.70;99.90;;;;;;4991806;28;20050;-61
2023/09/23 06:06:25;;;;;;;3.83;2.35;;;10.70;99.90;;;;;;4973040;28;20051;-60
2023/09/23 06:08:51;;;;;;;3.38;1.92;;;10.70;99.90;;;;;;4979471;28;20030;-62
2023/09/23 06:11:18;;;;;;;1.55;1.23;;;10.80;99.90;;;;;;4991448;28;20364;-61
2023/09/23 06:13:45;;;;;;;2.10;1.60;;;10.70;99.90;;;;;;4991688;28;20086;-62
2023/09/23 06:16:12;;;;;;;2.00;1.50;;;10.80;99.90;;;;;;4971353;28;20071;-60
2023/09/23 06:18:39;;;;;;;3.00;1.65;;;10.80;99.90;;;;;;4991542;28;20038;-58
2023/09/23 06:21:06;;;;;;;2.67;1.83;;;10.90;99.90;;;;;;4977912;28;20055;-62
2023/09/23 06:23:33;;;;;;;5.18;1.50;;;11.00;99.90;;;;;;4979136;28;20057;-61
2023/09/23 06:26:02;;;;;;;3.30;1.25;;;11.10;99.90;;;;;;4985440;28;20050;-61
2023/09/23 06:28:29;;;;;;;2.67;1.27;;;11.10;99.90;;;;;;4981286;28;20098;-61
2023/09/23 06:30:56;;;;;;;1.33;1.02;;;11.10;99.90;;;;;;4984888;28;20074;-61
2023/09/23 06:33:23;;;;;;;1.85;1.15;;;11.10;99.90;;;;;;4965519;28;20508;-62
2023/09/23 06:35:50;;;;;;;2.72;1.52;;;11.00;99.90;;;;;;4963633;28;20426;-59
2023/09/23 06:38:17;;;;;;;4.03;1.75;;;11.00;99.90;;;;;;4972544;28;20406;-61
2023/09/23 06:40:44;;;;;;;3.58;2.05;;;11.00;99.90;;;;;;4986323;28;20376;-61
2023/09/23 06:43:12;;;;;;;3.53;2.55;;;10.90;99.90;;;;;;4972151;28;20054;-61
2023/09/23 06:45:39;;;;;;;5.07;3.67;;;10.90;99.90;;;;;;4992520;28;20050;-61
2023/09/23 06:48:06;;;;;;;5.43;3.53;;;10.90;99.90;;;;;;4994033;28;20081;-62
2023/09/23 06:50:32;;;;;;;5.15;3.30;;;10.80;99.90;;;;;;4994485;28;20517;-61
2023/09/23 06:53:00;;;;;;;5.63;3.58;;;10.80;99.90;;;;;;4983530;28;20463;-60
2023/09/23 06:55:27;;;;;;;5.50;2.92;;;10.90;99.90;;;;;;4991195;28;20046;-60
2023/09/23 06:57:54;;;;;;;3.63;2.53;;;10.90;99.90;;;;;;4979265;28;20046;-60
2023/09/23 07:00:21;;;;;;;4.10;1.95;;;10.80;99.90;;;;;;4983645;28;20061;-61
2023/09/23 07:02:48;;;;;;;2.70;2.15;;;10.90;99.90;;;;;;4989532;28;20487;-61
2023/09/23 07:05:15;;;;;;;2.83;1.92;;;10.90;99.90;;;;;;4980752;28;20039;-60
2023/09/23 07:07:42;;;;;;;4.22;2.25;;;11.00;99.90;;;;;;4985971;28;20384;-60
2023/09/23 07:10:09;;;;;;;3.03;2.33;;;11.10;99.90;;;;;;4985624;28;20375;-60
2023/09/23 07:12:36;;;;;;;2.40;1.48;;;11.20;99.90;;;;;;4987662;28;20037;-61
2023/09/23 07:15:03;;;;;;;2.20;1.52;;;11.20;99.90;;;;;;4985626;28;20518;-61
2023/09/23 07:17:30;;;;;;;2.50;1.70;;;11.30;99.90;;;;;;4982080;28;20121;-57
2023/09/23 07:19:57;;;;;;;5.57;2.17;;;11.40;99.90;;;;;;4983046;28;20547;-61
2023/09/23 07:22:24;;;;;;;6.18;2.70;;;11.40;99.90;;;;;;4980686;28;20069;-60
2023/09/23 07:24:50;;;;;;;5.10;2.45;;;11.50;99.90;;;;;;4985011;28;20050;-60
2023/09/23 07:27:17;;;;;;;4.38;2.55;;;11.50;99.90;;;;;;4984532;28;20050;-60
2023/09/23 07:29:44;;;;;;;4.40;2.80;;;11.50;99.90;;;;;;4993506;28;20038;-61
2023/09/23 07:32:11;;;;;;;6.93;2.20;;;11.60;99.90;;;;;;4990525;28;20055;-60
2023/09/23 07:34:38;;;;;;;3.85;2.22;;;11.60;99.90;;;;;;4991985;28;20042;-63
2023/09/23 07:37:06;;;;;;;3.65;1.80;;;11.60;99.90;;;;;;4986147;28;20050;-60
2023/09/23 07:39:33;;;;;;;3.40;1.70;;;11.60;99.90;;;;;;4993888;28;20503;-61
2023/09/23 07:42:00;;;;;;;2.00;1.52;;;11.70;99.90;;;;;;4977530;28;20043;-61
2023/09/23 07:44:27;;;;;;;3.28;1.50;;;11.70;99.90;;;;;;4980264;28;20046;-61
2023/09/23 07:46:54;;;;;;;1.98;1.50;;;11.70;99.90;;;;;;4993258;28;20042;-60
2023/09/23 07:49:20;;;;;;;2.47;1.45;;;11.70;99.90;;;;;;4973206;28;20130;-60
2023/09/23 07:51:48;;;;;;;2.63;1.48;;;11.70;99.90;;;;;;4984237;28;20043;-61
2023/09/23 07:54:15;;;;;;;1.60;1.40;;;11.70;99.90;;;;;;4980031;28;20046;-61
2023/09/23 07:56:41;;;;;;;2.15;1.48;;;11.80;99.90;;;;;;4991409;28;20402;-61
2023/09/23 07:59:08;;;;;;;1.88;1.13;;;11.70;99.90;;;;;;4982952;28;20038;-60
2023/09/23 08:01:35;;;;;;;2.45;1.30;;;11.80;99.90;;;;;;4982750;28;20031;-59
2023/09/23 08:04:02;;;;;;;1.83;1.17;;;11.80;99.90;;;;;;4974253;28;20047;-61
2023/09/23 08:06:30;;;;;;;2.67;1.35;;;11.90;99.90;;;;;;4988422;28;20447;-61
2023/09/23 08:08:56;;;;;;;1.08;0.98;;;12.00;99.90;;;;;;4979521;28;20052;-61
2023/09/23 08:11:23;;;;;;;2.40;0.90;;;12.00;99.90;;;;;;4991353;28;20061;-60
2023/09/23 08:13:50;;;;;;;2.25;1.40;;;12.10;99.90;;;;;;4977795;28;20113;-60
2023/09/23 08:16:17;;;;;;;2.70;1.20;;;12.10;99.90;;;;;;4977073;28;20149;-60
2023/09/23 08:18:43;;;;;;;3.50;1.08;;;12.10;99.90;;;;;;4971469;28;20031;-59
2023/09/23 08:21:11;;;;;;;1.92;0.82;;;12.20;99.90;;;;;;4970599;28;20043;-62
2023/09/23 08:23:38;;;;;;;2.38;0.90;;;12.10;99.90;;;;;;4975097;28;20042;-60
2023/09/23 08:26:05;;;;;;;17.30;8.80;;;12.10;99.90;;;;;;4970581;28;20043;-60
2023/09/23 08:28:32;;;;;;;2.63;0.88;;;12.10;99.90;;;;;;4969580;28;20515;-60
2023/09/23 08:30:58;;;;;;;0.65;0.45;;;12.10;99.90;;;;;;4972069;28;20043;-60
2023/09/23 08:33:27;;;;;;;4.30;0.90;;;12.10;99.90;;;;;;4974049;28;20039;-59
2023/09/23 08:35:54;;;;;;;1.35;0.47;;;12.10;99.90;;;;;;4992689;28;20514;-60
2023/09/23 08:38:22;;;;;;;1.92;0.40;;;12.10;99.90;;;;;;4992421;28;20394;-61
2023/09/23 08:40:52;;;;;;;2.10;0.40;;;12.00;99.90;;;;;;4961878;28;20042;-61
2023/09/23 08:43:36;;;;;;;1.17;0.65;;;11.90;99.90;;;;;;4971436;28;20484;-61
2023/09/23 08:46:09;;;;;;;2.80;0.80;;;11.90;99.90;;;;;;4986649;28;20074;-61
2023/09/23 08:48:37;;;;;;;3.35;0.60;;;11.90;99.90;;;;;;4981470;28;20038;-60
2023/09/23 08:51:10;;;;;;;0.52;0.45;;;11.90;99.90;;;;;;4970539;28;20129;-60
2023/09/23 08:53:38;;;;;;;2.58;0.60;;;11.80;99.90;;;;;;4984367;28;20050;-59
2023/09/23 08:56:06;;;;;;;2.88;0.60;;;11.70;99.90;;;;;;4980559;28;20062;-61
2023/09/23 08:58:33;;;;;;;0.75;0.50;;;11.60;99.90;;;;;;4978630;28;20038;-60
2023/09/23 09:01:01;;;;;;;1.70;0.75;;;11.60;99.90;;;;;;4973904;28;20051;-61
2023/09/23 09:03:29;;;;;;;0.80;0.68;;;11.50;99.90;;;;;;4973015;28;20046;-59
2023/09/23 09:05:56;;;;;;;4.22;0.70;;;11.50;99.90;;;;;;4983840;28;20121;-61
2023/09/23 09:08:23;;;;;;;1.10;0.60;;;11.50;99.90;;;;;;4984777;28;20557;-61
2023/09/23 09:10:50;;;;;;;1.48;0.77;;;11.30;99.90;;;;;;4985627;28;20133;-61
2023/09/23 09:13:17;;;;;;;1.55;0.70;;;11.20;99.90;;;;;;4978026;28;20077;-61
2023/09/23 09:15:44;;;;;;;0.45;0.40;;;11.20;99.90;;;;;;4983490;28;20038;-60
2023/09/23 09:18:11;;;;;;;4.03;0.88;;;11.30;99.90;;;;;;4968941;28;20047;-60
2023/09/23 09:20:38;;;;;;;2.55;0.70;;;11.30;99.90;;;;;;4989963;28;20522;-62
2023/09/23 09:23:05;;;;;;;2.55;0.75;;;11.40;99.90;;;;;;4977323;28;20057;-61
2023/09/23 09:25:32;;;;;;;1.63;0.80;;;11.50;99.90;;;;;;4986301;28;20045;-60
2023/09/23 09:27:59;;;;;;;2.00;0.73;;;11.60;99.90;;;;;;4980715;28;20042;-62
2023/09/23 09:30:26;;;;;;;2.75;0.88;;;11.70;99.90;;;;;;4981964;28;20504;-60
2023/09/23 09:32:59;;;;;;;2.03;0.85;;;11.60;99.90;;;;;;4977652;28;20055;-61
2023/09/23 09:35:27;;;;;;;2.90;0.88;;;11.60;99.90;;;;;;4981654;28;20122;-60
2023/09/23 09:37:59;;;;;;;1.25;0.80;;;11.60;99.90;;;;;;4983100;28;20042;-59
2023/09/23 09:40:43;;;;;;;3.38;0.73;;;11.70;99.90;;;;;;4977171;28;20049;-60
2023/09/23 09:43:10;;;;;;;4.57;0.90;;;11.70;99.90;;;;;;4974839;28;20039;-61
2023/09/23 09:45:40;;;;;;;4.53;1.10;;;11.70;99.90;;;;;;4981716;28;20039;-61
2023/09/23 09:48:08;;;;;;;1.83;0.90;;;11.80;99.90;;;;;;4984899;28;20039;-61
2023/09/23 09:50:38;;;;;;;1.05;0.60;;;11.90;99.90;;;;;;4982155;28;20043;-60
2023/09/23 09:53:08;;;;;;;2.08;0.90;;;11.90;99.90;;;;;;4967696;28;20043;-59
2023/09/23 09:55:35;;;;;;;3.97;1.05;;;11.90;99.90;;;;;;4971882;28;20566;-61
2023/09/23 09:58:02;;;;;;;2.40;0.60;;;12.00;99.90;;;;;;4981893;28;20050;-60
2023/09/23 10:00:37;;;;;;;1.30;0.70;;;12.10;99.90;;;;;;4979754;28;20043;-60
2023/09/23 10:03:05;;;;;;;1.42;0.70;;;12.10;99.90;;;;;;4979308;28;20038;-61
2023/09/23 10:05:49;;;;;;;2.53;0.70;;;12.20;99.90;;;;;;4983923;28;20168;-61
2023/09/23 10:08:24;;;;;;;1.55;0.80;;;12.30;99.90;;;;;;4979480;28;20049;-61
2023/09/23 10:11:02;;;;;;;0.80;0.68;;;12.30;99.90;;;;;;4976785;28;20152;-61
2023/09/23 10:13:31;;;;;;;1.95;0.70;;;12.40;99.90;;;;;;4980287;28;20039;-61
2023/09/23 10:16:05;;;;;;;0.75;0.57;;;12.40;99.90;;;;;;4975316;28;20125;-61
2023/09/23 10:18:40;;;;;;;0.93;0.50;;;12.40;99.90;;;;;;4973260;28;20065;-61
2023/09/23 10:21:20;;;;;;;1.98;0.68;;;12.40;99.90;;;;;;4989125;28;20490;-62
2023/09/23 10:23:49;;;;;;;1.60;0.52;;;12.50;99.90;;;;;;4986651;28;20134;-62
2023/09/23 10:26:20;;;;;;;2.40;0.70;;;12.60;99.90;;;;;;4988576;28;20039;-62
2023/09/23 10:28:59;;;;;;;3.13;0.85;;;12.80;99.90;;;;;;4984776;28;20046;-61
2023/09/23 10:31:30;;;;;;;2.38;0.55;;;12.90;99.90;;;;;;4979318;28;20038;-62
2023/09/23 10:34:02;;;;;;;2.40;0.90;;;13.00;99.90;;;;;;4962373;28;20054;-61
2023/09/23 10:36:29;;;;;;;2.17;0.70;;;13.10;99.90;;;;;;4967920;28;20042;-61
2023/09/23 10:38:57;;;;;;;1.08;0.70;;;13.30;99.90;;;;;;4978587;28;20085;-60
2023/09/23 10:41:37;;;;;;;3.05;0.70;;;13.40;99.90;;;;;;4982333;28;20082;-62
2023/09/23 10:44:04;;;;;;;2.15;0.60;;;13.60;99.90;;;;;;4968558;28;20113;-61
2023/09/23 10:46:32;;;;;;;1.20;0.50;;;13.70;99.90;;;;;;4968466;28;20106;-62
2023/09/23 10:49:02;;;;;;;1.35;0.63;;;14.00;99.90;;;;;;4990848;28;20039;-62
2023/09/23 10:51:29;;;;;;;2.20;0.60;;;14.20;99.90;;;;;;4983242;28;20051;-62
2023/09/23 10:53:56;;;;;;;1.95;0.63;;;14.30;99.90;;;;;;4974517;28;20575;-61
2023/09/23 10:56:24;;;;;;;5.07;0.70;;;14.40;99.90;;;;;;4974434;28;20065;-61
2023/09/23 10:58:52;;;;;;;0.95;0.57;;;14.40;99.90;;;;;;4983733;28;20049;-62
2023/09/23 11:01:20;;;;;;;1.20;0.57;;;14.60;99.90;;;;;;4984476;28;20042;-62
2023/09/23 11:03:48;;;;;;;1.05;0.63;;;14.80;99.90;;;;;;4981680;28;20615;-62
2023/09/23 11:06:16;;;;;;;2.03;0.60;;;14.80;99.90;;;;;;4982136;28;20465;-62
2023/09/23 11:08:43;;;;;;;0.88;0.45;;;14.90;99.90;;;;;;4986293;28;20076;-62
2023/09/23 11:11:12;;;;;;;1.40;0.50;;;15.00;99.90;;;;;;4983193;28;20403;-61
2023/09/23 11:13:40;;;;;;;1.75;0.50;;;15.10;99.90;;;;;;4980023;28;20039;-62
2023/09/23 11:16:08;;;;;;;;;;;15.00;99.90;;;;;;4987021;28;20115;-62
2023/09/23 11:18:36;;;;;;;1.30;0.75;;;15.10;99.90;;;;;;4978828;28;19922;-62
2023/09/23 11:21:03;;;;;;;1.55;0.40;;;15.20;99.90;;;;;;4982373;28;20511;-62
2023/09/23 11:23:30;;;;;;;2.80;0.60;;;15.20;99.90;;;;;;4971852;28;20074;-62
2023/09/23 11:25:57;;;;;;;1.75;0.40;;;15.00;99.90;;;;;;4985001;28;20062;-62
2023/09/23 11:28:25;;;;;;;1.85;0.50;;;15.00;99.90;;;;;;4979021;28;20038;-62
2023/09/23 11:30:54;;;;;;;3.30;0.52;;;15.00;99.90;;;;;;4979937;28;20079;-62
2023/09/23 11:33:21;;;;;;;0.95;0.68;;;15.10;99.90;;;;;;4984450;28;20537;-62
2023/09/23 11:35:48;;;;;;;0.70;0.45;;;15.30;99.90;;;;;;4982994;28;20105;-62
2023/09/23 11:38:16;;;;;;;3.45;0.70;;;15.20;99.90;;;;;;4963922;28;20054;-62
2023/09/23 11:40:45;;;;;;;1.15;0.60;;;15.00;99.90;;;;;;4984771;28;20125;-62
2023/09/23 11:43:12;;;;;;;1.70;0.70;;;14.90;99.90;;;;;;4971528;28;20043;-61
2023/09/23 11:45:42;;;;;;;0.47;0.35;;;14.70;99.90;;;;;;4975370;28;20053;-62
2023/09/23 11:48:09;;;;;;;1.13;0.50;;;14.50;99.90;;;;;;4978477;28;20057;-64
2023/09/23 11:50:37;;;;;;;1.65;0.73;;;14.40;99.90;;;;;;4982402;28;20109;-62
2023/09/23 11:53:04;;;;;;;1.35;0.70;;;14.30;99.90;;;;;;4986143;28;20141;-61
2023/09/23 11:55:32;;;;;;;1.02;0.45;;;14.30;99.90;;;;;;4984498;28;20047;-62
2023/09/23 11:58:00;;;;;;;2.22;0.60;;;14.20;99.90;;;;;;4984323;28;20038;-61
2023/09/23 12:00:28;;;;;;;;;;;14.20;99.90;;;;;;4982307;28;20050;-62
2023/09/23 12:02:55;;;;;;;1.70;0.50;;;14.20;99.90;;;;;;4986082;28;19926;-61
2023/09/23 12:05:28;;;;;;;0.93;0.60;;;14.10;99.90;;;;;;4981631;28;20046;-62
2023/09/23 12:07:59;;;;;;;1.65;0.43;;;14.00;99.90;;;;;;4975787;28;20594;-61
2023/09/23 12:10:29;;;;;;;4.20;0.77;;;14.00;99.90;;;;;;4979630;28;20038;-61
2023/09/23 12:13:02;;;;;;;0.55;0.40;;;13.90;99.90;;;;;;4983688;28;20054;-61
2023/09/23 12:15:30;;;;;;;4.20;0.57;;;13.90;99.90;;;;;;4985371;28;20045;-62
2023/09/23 12:17:57;;;;;;;;;;;13.80;99.90;;;;;;4983664;28;20393;-62
2023/09/23 12:20:25;;;;;;;1.42;0.63;;;13.80;99.90;;;;;;4973101;28;19928;-61
2023/09/23 12:22:57;;;;;;;2.10;0.60;;;13.80;99.90;;;;;;4972735;28;20386;-61
2023/09/23 12:25:24;;;;;;;1.38;0.40;;;13.80;99.90;;;;;;4973108;28;20047;-60
2023/09/23 12:27:51;;;;;;;;;;;13.80;99.90;;;;;;4966130;28;20126;-61
2023/09/23 12:30:18;;;;;;;2.97;0.70;;;13.70;99.90;;;;;;4978376;28;19929;-60
2023/09/23 12:32:45;;;;;;;1.33;0.60;;;13.60;99.90;;;;;;4965642;28;20039;-61
2023/09/23 12:35:12;;;;;;;1.05;0.70;;;13.70;99.90;;;;;;4979147;28;20054;-60
2023/09/23 12:37:40;;;;;;;2.30;0.57;;;13.70;99.90;;;;;;4970396;28;20061;-62
2023/09/23 12:40:07;;;;;;;3.65;0.90;;;13.80;99.90;;;;;;4979748;28;20389;-62
2023/09/23 12:42:34;;;;;;;3.00;0.90;;;13.80;99.90;;;;;;4977795;28;20517;-62
2023/09/23 12:45:01;;;;;;;3.63;0.70;;;13.90;99.90;;;;;;4975713;28;20681;-62
2023/09/23 12:47:32;;;;;;;1.77;0.70;;;14.00;99.90;;;;;;4981287;28;20031;-62
2023/09/23 12:50:18;;;;;;;1.15;0.77;;;14.00;99.90;;;;;;4972821;28;20039;-62
2023/09/23 12:52:45;;;;;;;2.15;0.90;;;14.00;99.90;;;;;;4973577;28;20046;-62
2023/09/23 12:55:12;;;;;;;1.85;0.85;;;14.00;99.90;;;;;;4980367;28;20098;-61
2023/09/23 12:57:39;;;;;;;1.98;0.63;;;14.00;99.90;;;;;;4972600;28;20042;-62
2023/09/23 13:00:06;;;;;;;2.33;0.90;;;14.00;99.90;;;;;;4980714;28;20069;-62
2023/09/23 13:02:34;;;;;;;1.17;0.70;;;14.10;99.90;;;;;;4972865;28;20073;-62